sensor_id;sensor_type;location;lat;lon;timestamp;P1;durP1;ratioP1;P2;durP2;ratioP2
35632;SDS011;21754;48.216;-1.628;2023-05-29T00:02:10;21.35;;;6.95;;
35632;SDS011;21754;48.216;-1.628;2023-05-29T00:04:36;17.75;;;6.75;;
35632;SDS011;21754;48.216;-1.628;2023-05-29T00:07:02;16.40;;;6.82;;
35632;SDS011;21754;48.216;-1.628;2023-05-29T00:09:29;18.35;;;6.53;;
35632;SDS011;21754;48.216;-1.628;2023-05-29T00:11:54;30.25;;;6.07;;
35632;SDS011;21754;48.216;-1.628;2023-05-29T00:14:21;16.02;;;6.57;;
35632;SDS011;21754;48.216;-1.628;2023-05-29T00:16:48;28.13;;;8.25;;
35632;SDS011;21754;48.216;-1.628;2023-05-29T00:19:15;23.67;;;7.22;;
35632;SDS011;21754;48.216;-1.628;2023-05-29T00:21:42;17.25;;;7.28;;
35632;SDS011;21754;48.216;-1.628;2023-05-29T00:24:08;21.25;;;6.03;;
35632;SDS011;21754;48.216;-1.628;2023-05-29T00:26:34;22.67;;;6.55;;
35632;SDS011;21754;48.216;-1.628;2023-05-29T00:29:00;21.35;;;6.53;;
35632;SDS011;21754;48.216;-1.628;2023-05-29T00:31:26;19.73;;;7.30;;
35632;SDS011;21754;48.216;-1.628;2023-05-29T00:33:53;15.63;;;6.10;;
35632;SDS011;21754;48.216;-1.628;2023-05-29T00:36:19;17.05;;;6.50;;
35632;SDS011;21754;48.216;-1.628;2023-05-29T00:38:45;24.25;;;8.40;;
35632;SDS011;21754;48.216;-1.628;2023-05-29T00:41:14;19.55;;;7.00;;
35632;SDS011;21754;48.216;-1.628;2023-05-29T00:43:41;18.88;;;6.57;;
35632;SDS011;21754;48.216;-1.628;2023-05-29T00:46:07;21.17;;;6.15;;
35632;SDS011;21754;48.216;-1.628;2023-05-29T00:48:33;12.55;;;7.25;;
35632;SDS011;21754;48.216;-1.628;2023-05-29T00:50:59;29.27;;;8.45;;
35632;SDS011;21754;48.216;-1.628;2023-05-29T00:53:26;21.63;;;6.43;;
35632;SDS011;21754;48.216;-1.628;2023-05-29T00:55:52;25.30;;;6.72;;
35632;SDS011;21754;48.216;-1.628;2023-05-29T00:58:18;16.45;;;7.10;;
35632;SDS011;21754;48.216;-1.628;2023-05-29T01:00:45;19.23;;;7.78;;
35632;SDS011;21754;48.216;-1.628;2023-05-29T01:03:11;18.83;;;7.13;;
35632;SDS011;21754;48.216;-1.628;2023-05-29T01:05:39;24.40;;;7.03;;
35632;SDS011;21754;48.216;-1.628;2023-05-29T01:08:06;17.38;;;6.38;;
35632;SDS011;21754;48.216;-1.628;2023-05-29T01:10:33;16.67;;;7.47;;
35632;SDS011;21754;48.216;-1.628;2023-05-29T01:13:10;18.60;;;7.82;;
35632;SDS011;21754;48.216;-1.628;2023-05-29T01:15:48;15.88;;;7.65;;
35632;SDS011;21754;48.216;-1.628;2023-05-29T01:20:56;17.25;;;6.78;;
35632;SDS011;21754;48.216;-1.628;2023-05-29T01:28:44;22.95;;;6.63;;
35632;SDS011;21754;48.216;-1.628;2023-05-29T01:31:12;24.60;;;8.30;;
35632;SDS011;21754;48.216;-1.628;2023-05-29T01:33:39;24.20;;;6.75;;
35632;SDS011;21754;48.216;-1.628;2023-05-29T01:36:06;23.15;;;8.57;;
35632;SDS011;21754;48.216;-1.628;2023-05-29T01:38:33;17.73;;;6.90;;
35632;SDS011;21754;48.216;-1.628;2023-05-29T01:40:59;27.25;;;7.50;;
35632;SDS011;21754;48.216;-1.628;2023-05-29T01:43:25;23.35;;;7.47;;
35632;SDS011;21754;48.216;-1.628;2023-05-29T01:45:51;24.95;;;7.05;;
35632;SDS011;21754;48.216;-1.628;2023-05-29T01:48:17;15.95;;;6.65;;
35632;SDS011;21754;48.216;-1.628;2023-05-29T01:50:45;21.63;;;7.28;;
35632;SDS011;21754;48.216;-1.628;2023-05-29T01:53:12;19.55;;;7.63;;
35632;SDS011;21754;48.216;-1.628;2023-05-29T01:55:38;31.63;;;8.77;;
35632;SDS011;21754;48.216;-1.628;2023-05-29T01:58:04;28.20;;;9.43;;
35632;SDS011;21754;48.216;-1.628;2023-05-29T02:00:31;20.48;;;7.85;;
35632;SDS011;21754;48.216;-1.628;2023-05-29T02:02:57;15.70;;;6.57;;
35632;SDS011;21754;48.216;-1.628;2023-05-29T02:05:23;25.15;;;7.22;;
35632;SDS011;21754;48.216;-1.628;2023-05-29T02:07:49;18.17;;;6.65;;
35632;SDS011;21754;48.216;-1.628;2023-05-29T02:10:15;16.35;;;6.65;;
35632;SDS011;21754;48.216;-1.628;2023-05-29T02:12:41;20.02;;;8.30;;
35632;SDS011;21754;48.216;-1.628;2023-05-29T02:15:07;18.80;;;8.57;;
35632;SDS011;21754;48.216;-1.628;2023-05-29T02:17:33;22.35;;;8.52;;
35632;SDS011;21754;48.216;-1.628;2023-05-29T02:20:00;19.45;;;6.95;;
35632;SDS011;21754;48.216;-1.628;2023-05-29T02:22:26;19.85;;;8.20;;
35632;SDS011;21754;48.216;-1.628;2023-05-29T02:24:52;16.25;;;6.30;;
35632;SDS011;21754;48.216;-1.628;2023-05-29T02:27:18;21.75;;;7.10;;
35632;SDS011;21754;48.216;-1.628;2023-05-29T02:29:45;19.23;;;7.93;;
35632;SDS011;21754;48.216;-1.628;2023-05-29T02:32:11;32.20;;;13.68;;
35632;SDS011;21754;48.216;-1.628;2023-05-29T02:34:37;14.32;;;6.95;;
35632;SDS011;21754;48.216;-1.628;2023-05-29T02:37:03;13.70;;;7.05;;
35632;SDS011;21754;48.216;-1.628;2023-05-29T02:39:29;25.80;;;7.53;;
35632;SDS011;21754;48.216;-1.628;2023-05-29T02:41:55;25.23;;;7.55;;
35632;SDS011;21754;48.216;-1.628;2023-05-29T02:44:21;18.15;;;6.70;;
35632;SDS011;21754;48.216;-1.628;2023-05-29T02:46:47;15.55;;;6.85;;
35632;SDS011;21754;48.216;-1.628;2023-05-29T02:49:13;23.85;;;7.22;;
35632;SDS011;21754;48.216;-1.628;2023-05-29T02:51:39;19.20;;;6.75;;
35632;SDS011;21754;48.216;-1.628;2023-05-29T02:54:05;23.05;;;7.70;;
35632;SDS011;21754;48.216;-1.628;2023-05-29T02:56:31;25.65;;;7.80;;
35632;SDS011;21754;48.216;-1.628;2023-05-29T02:58:57;24.00;;;8.10;;
35632;SDS011;21754;48.216;-1.628;2023-05-29T03:01:23;16.33;;;6.47;;
35632;SDS011;21754;48.216;-1.628;2023-05-29T03:03:49;29.88;;;7.70;;
35632;SDS011;21754;48.216;-1.628;2023-05-29T03:06:15;16.30;;;6.55;;
35632;SDS011;21754;48.216;-1.628;2023-05-29T03:08:42;20.50;;;7.83;;
35632;SDS011;21754;48.216;-1.628;2023-05-29T03:11:09;27.07;;;9.63;;
35632;SDS011;21754;48.216;-1.628;2023-05-29T03:13:36;17.80;;;7.65;;
35632;SDS011;21754;48.216;-1.628;2023-05-29T03:16:02;15.15;;;6.63;;
35632;SDS011;21754;48.216;-1.628;2023-05-29T03:18:28;29.25;;;9.13;;
35632;SDS011;21754;48.216;-1.628;2023-05-29T03:20:54;23.38;;;8.38;;
35632;SDS011;21754;48.216;-1.628;2023-05-29T03:23:20;16.58;;;6.80;;
35632;SDS011;21754;48.216;-1.628;2023-05-29T03:25:46;15.52;;;7.13;;
35632;SDS011;21754;48.216;-1.628;2023-05-29T03:28:12;14.18;;;7.32;;
35632;SDS011;21754;48.216;-1.628;2023-05-29T03:30:38;25.48;;;8.23;;
35632;SDS011;21754;48.216;-1.628;2023-05-29T03:33:04;22.02;;;7.82;;
35632;SDS011;21754;48.216;-1.628;2023-05-29T03:35:31;22.98;;;8.18;;
35632;SDS011;21754;48.216;-1.628;2023-05-29T03:37:57;20.13;;;8.25;;
35632;SDS011;21754;48.216;-1.628;2023-05-29T03:40:23;15.25;;;6.78;;
35632;SDS011;21754;48.216;-1.628;2023-05-29T03:42:49;21.92;;;7.65;;
35632;SDS011;21754;48.216;-1.628;2023-05-29T03:45:15;17.17;;;5.68;;
35632;SDS011;21754;48.216;-1.628;2023-05-29T03:47:41;27.38;;;8.52;;
35632;SDS011;21754;48.216;-1.628;2023-05-29T03:50:08;17.67;;;6.78;;
35632;SDS011;21754;48.216;-1.628;2023-05-29T03:52:34;18.42;;;6.70;;
35632;SDS011;21754;48.216;-1.628;2023-05-29T03:55:00;18.70;;;6.97;;
35632;SDS011;21754;48.216;-1.628;2023-05-29T03:57:26;16.85;;;6.68;;
35632;SDS011;21754;48.216;-1.628;2023-05-29T03:59:52;12.45;;;6.15;;
35632;SDS011;21754;48.216;-1.628;2023-05-29T04:02:18;18.33;;;6.38;;
35632;SDS011;21754;48.216;-1.628;2023-05-29T04:04:44;17.50;;;6.32;;
35632;SDS011;21754;48.216;-1.628;2023-05-29T04:07:10;22.90;;;7.63;;
35632;SDS011;21754;48.216;-1.628;2023-05-29T04:09:36;18.15;;;6.57;;
35632;SDS011;21754;48.216;-1.628;2023-05-29T04:12:02;21.38;;;7.03;;
35632;SDS011;21754;48.216;-1.628;2023-05-29T04:16:56;10.30;;;6.07;;
35632;SDS011;21754;48.216;-1.628;2023-05-29T04:19:22;12.68;;;6.82;;
35632;SDS011;21754;48.216;-1.628;2023-05-29T04:21:48;13.90;;;6.97;;
35632;SDS011;21754;48.216;-1.628;2023-05-29T04:24:14;13.50;;;6.28;;
35632;SDS011;21754;48.216;-1.628;2023-05-29T04:26:40;16.35;;;8.15;;
35632;SDS011;21754;48.216;-1.628;2023-05-29T04:29:07;16.33;;;6.78;;
35632;SDS011;21754;48.216;-1.628;2023-05-29T04:31:33;23.42;;;7.03;;
35632;SDS011;21754;48.216;-1.628;2023-05-29T04:36:29;14.55;;;6.95;;
35632;SDS011;21754;48.216;-1.628;2023-05-29T04:38:58;17.52;;;6.45;;
35632;SDS011;21754;48.216;-1.628;2023-05-29T04:41:27;12.18;;;5.25;;
35632;SDS011;21754;48.216;-1.628;2023-05-29T04:43:56;20.55;;;7.55;;
35632;SDS011;21754;48.216;-1.628;2023-05-29T04:46:23;15.30;;;7.45;;
35632;SDS011;21754;48.216;-1.628;2023-05-29T04:48:50;22.83;;;6.65;;
35632;SDS011;21754;48.216;-1.628;2023-05-29T04:51:21;16.33;;;5.65;;
35632;SDS011;21754;48.216;-1.628;2023-05-29T04:53:48;19.63;;;6.13;;
35632;SDS011;21754;48.216;-1.628;2023-05-29T04:56:14;16.02;;;5.38;;
35632;SDS011;21754;48.216;-1.628;2023-05-29T04:58:41;12.80;;;6.60;;
35632;SDS011;21754;48.216;-1.628;2023-05-29T05:01:07;15.23;;;8.25;;
35632;SDS011;21754;48.216;-1.628;2023-05-29T05:03:34;16.30;;;6.43;;
35632;SDS011;21754;48.216;-1.628;2023-05-29T05:06:00;16.65;;;7.60;;
35632;SDS011;21754;48.216;-1.628;2023-05-29T05:08:31;15.77;;;5.47;;
35632;SDS011;21754;48.216;-1.628;2023-05-29T05:10:58;15.73;;;6.18;;
35632;SDS011;21754;48.216;-1.628;2023-05-29T05:13:24;17.83;;;6.75;;
35632;SDS011;21754;48.216;-1.628;2023-05-29T05:15:50;13.82;;;5.63;;
35632;SDS011;21754;48.216;-1.628;2023-05-29T05:18:16;13.85;;;5.13;;
35632;SDS011;21754;48.216;-1.628;2023-05-29T05:20:42;13.05;;;5.00;;
35632;SDS011;21754;48.216;-1.628;2023-05-29T05:23:08;9.43;;;5.10;;
35632;SDS011;21754;48.216;-1.628;2023-05-29T05:25:35;20.17;;;5.43;;
35632;SDS011;21754;48.216;-1.628;2023-05-29T05:28:02;13.25;;;4.72;;
35632;SDS011;21754;48.216;-1.628;2023-05-29T05:30:28;9.68;;;4.95;;
35632;SDS011;21754;48.216;-1.628;2023-05-29T05:32:54;22.58;;;4.55;;
35632;SDS011;21754;48.216;-1.628;2023-05-29T05:35:21;17.17;;;5.63;;
35632;SDS011;21754;48.216;-1.628;2023-05-29T05:37:47;18.73;;;6.25;;
35632;SDS011;21754;48.216;-1.628;2023-05-29T05:40:13;9.52;;;5.43;;
35632;SDS011;21754;48.216;-1.628;2023-05-29T05:42:39;12.20;;;5.10;;
35632;SDS011;21754;48.216;-1.628;2023-05-29T05:45:06;8.43;;;4.03;;
35632;SDS011;21754;48.216;-1.628;2023-05-29T05:47:32;16.60;;;5.47;;
35632;SDS011;21754;48.216;-1.628;2023-05-29T05:49:58;14.77;;;5.35;;
35632;SDS011;21754;48.216;-1.628;2023-05-29T05:52:24;17.23;;;5.80;;
35632;SDS011;21754;48.216;-1.628;2023-05-29T05:54:55;12.52;;;4.85;;
35632;SDS011;21754;48.216;-1.628;2023-05-29T05:57:21;15.15;;;4.57;;
35632;SDS011;21754;48.216;-1.628;2023-05-29T05:59:47;13.32;;;5.28;;
35632;SDS011;21754;48.216;-1.628;2023-05-29T06:02:13;17.95;;;4.45;;
35632;SDS011;21754;48.216;-1.628;2023-05-29T06:04:39;16.38;;;4.95;;
35632;SDS011;21754;48.216;-1.628;2023-05-29T06:07:06;16.88;;;5.07;;
35632;SDS011;21754;48.216;-1.628;2023-05-29T06:09:33;16.42;;;6.10;;
35632;SDS011;21754;48.216;-1.628;2023-05-29T06:11:59;12.27;;;5.60;;
35632;SDS011;21754;48.216;-1.628;2023-05-29T06:14:25;12.20;;;5.00;;
35632;SDS011;21754;48.216;-1.628;2023-05-29T06:16:51;13.65;;;4.50;;
35632;SDS011;21754;48.216;-1.628;2023-05-29T06:19:18;15.20;;;5.63;;
35632;SDS011;21754;48.216;-1.628;2023-05-29T06:21:44;10.13;;;4.70;;
35632;SDS011;21754;48.216;-1.628;2023-05-29T06:24:10;19.17;;;4.93;;
35632;SDS011;21754;48.216;-1.628;2023-05-29T06:26:37;11.68;;;4.97;;
35632;SDS011;21754;48.216;-1.628;2023-05-29T06:29:03;12.90;;;4.68;;
35632;SDS011;21754;48.216;-1.628;2023-05-29T06:31:29;9.95;;;4.60;;
35632;SDS011;21754;48.216;-1.628;2023-05-29T06:33:55;15.13;;;4.57;;
35632;SDS011;21754;48.216;-1.628;2023-05-29T06:36:22;10.52;;;4.93;;
35632;SDS011;21754;48.216;-1.628;2023-05-29T06:38:48;12.43;;;4.05;;
35632;SDS011;21754;48.216;-1.628;2023-05-29T06:41:14;10.85;;;4.68;;
35632;SDS011;21754;48.216;-1.628;2023-05-29T06:43:40;12.40;;;4.35;;
35632;SDS011;21754;48.216;-1.628;2023-05-29T06:46:06;10.20;;;3.83;;
35632;SDS011;21754;48.216;-1.628;2023-05-29T06:48:35;10.82;;;4.57;;
35632;SDS011;21754;48.216;-1.628;2023-05-29T06:51:02;10.75;;;4.20;;
35632;SDS011;21754;48.216;-1.628;2023-05-29T06:53:36;15.02;;;3.80;;
35632;SDS011;21754;48.216;-1.628;2023-05-29T06:56:02;12.80;;;5.25;;
35632;SDS011;21754;48.216;-1.628;2023-05-29T06:58:29;17.23;;;4.43;;
35632;SDS011;21754;48.216;-1.628;2023-05-29T07:00:55;12.50;;;4.90;;
35632;SDS011;21754;48.216;-1.628;2023-05-29T07:03:22;12.63;;;5.15;;
35632;SDS011;21754;48.216;-1.628;2023-05-29T07:05:48;10.00;;;4.30;;
35632;SDS011;21754;48.216;-1.628;2023-05-29T07:08:14;19.13;;;4.95;;
35632;SDS011;21754;48.216;-1.628;2023-05-29T07:10:40;14.73;;;4.75;;
35632;SDS011;21754;48.216;-1.628;2023-05-29T07:13:06;11.18;;;4.93;;
35632;SDS011;21754;48.216;-1.628;2023-05-29T07:15:32;11.52;;;4.63;;
35632;SDS011;21754;48.216;-1.628;2023-05-29T07:17:59;12.93;;;6.00;;
35632;SDS011;21754;48.216;-1.628;2023-05-29T07:20:25;10.18;;;4.10;;
35632;SDS011;21754;48.216;-1.628;2023-05-29T07:22:51;8.60;;;3.88;;
35632;SDS011;21754;48.216;-1.628;2023-05-29T07:25:17;8.15;;;4.03;;
35632;SDS011;21754;48.216;-1.628;2023-05-29T07:27:43;9.80;;;4.25;;
35632;SDS011;21754;48.216;-1.628;2023-05-29T07:30:09;13.20;;;4.32;;
35632;SDS011;21754;48.216;-1.628;2023-05-29T07:32:35;9.38;;;4.80;;
35632;SDS011;21754;48.216;-1.628;2023-05-29T07:35:01;4.85;;;3.40;;
35632;SDS011;21754;48.216;-1.628;2023-05-29T07:37:27;14.73;;;4.72;;
35632;SDS011;21754;48.216;-1.628;2023-05-29T07:39:55;12.73;;;4.65;;
35632;SDS011;21754;48.216;-1.628;2023-05-29T07:42:21;13.57;;;4.43;;
35632;SDS011;21754;48.216;-1.628;2023-05-29T07:44:47;10.60;;;4.30;;
35632;SDS011;21754;48.216;-1.628;2023-05-29T07:47:13;17.83;;;5.50;;
35632;SDS011;21754;48.216;-1.628;2023-05-29T07:49:39;6.38;;;4.13;;
35632;SDS011;21754;48.216;-1.628;2023-05-29T07:52:05;15.23;;;4.60;;
35632;SDS011;21754;48.216;-1.628;2023-05-29T07:54:32;11.82;;;4.30;;
35632;SDS011;21754;48.216;-1.628;2023-05-29T07:56:58;9.60;;;4.40;;
35632;SDS011;21754;48.216;-1.628;2023-05-29T07:59:25;21.90;;;5.18;;
35632;SDS011;21754;48.216;-1.628;2023-05-29T08:01:51;14.40;;;5.90;;
35632;SDS011;21754;48.216;-1.628;2023-05-29T08:04:17;11.82;;;4.55;;
35632;SDS011;21754;48.216;-1.628;2023-05-29T08:06:43;12.77;;;4.45;;
35632;SDS011;21754;48.216;-1.628;2023-05-29T08:09:09;9.55;;;4.28;;
35632;SDS011;21754;48.216;-1.628;2023-05-29T08:11:36;13.77;;;4.10;;
35632;SDS011;21754;48.216;-1.628;2023-05-29T08:14:02;16.85;;;4.57;;
35632;SDS011;21754;48.216;-1.628;2023-05-29T08:16:28;18.55;;;4.72;;
35632;SDS011;21754;48.216;-1.628;2023-05-29T08:18:54;11.82;;;5.53;;
35632;SDS011;21754;48.216;-1.628;2023-05-29T08:21:21;14.48;;;5.07;;
35632;SDS011;21754;48.216;-1.628;2023-05-29T08:23:47;15.18;;;4.30;;
35632;SDS011;21754;48.216;-1.628;2023-05-29T08:26:13;9.25;;;4.90;;
35632;SDS011;21754;48.216;-1.628;2023-05-29T08:28:39;13.52;;;4.55;;
35632;SDS011;21754;48.216;-1.628;2023-05-29T08:31:05;10.52;;;3.65;;
35632;SDS011;21754;48.216;-1.628;2023-05-29T08:33:31;9.82;;;4.80;;
35632;SDS011;21754;48.216;-1.628;2023-05-29T08:35:58;14.95;;;5.55;;
35632;SDS011;21754;48.216;-1.628;2023-05-29T08:38:24;15.30;;;4.85;;
35632;SDS011;21754;48.216;-1.628;2023-05-29T08:40:51;10.43;;;4.70;;
35632;SDS011;21754;48.216;-1.628;2023-05-29T08:43:21;11.88;;;5.18;;
35632;SDS011;21754;48.216;-1.628;2023-05-29T08:45:47;8.77;;;4.95;;
35632;SDS011;21754;48.216;-1.628;2023-05-29T08:48:16;17.73;;;6.95;;
35632;SDS011;21754;48.216;-1.628;2023-05-29T08:50:44;15.20;;;5.40;;
35632;SDS011;21754;48.216;-1.628;2023-05-29T08:53:13;22.60;;;6.57;;
35632;SDS011;21754;48.216;-1.628;2023-05-29T08:55:40;12.07;;;5.00;;
35632;SDS011;21754;48.216;-1.628;2023-05-29T08:58:06;11.30;;;5.22;;
35632;SDS011;21754;48.216;-1.628;2023-05-29T09:00:33;8.13;;;4.83;;
35632;SDS011;21754;48.216;-1.628;2023-05-29T09:02:59;6.20;;;4.78;;
35632;SDS011;21754;48.216;-1.628;2023-05-29T09:05:25;11.82;;;5.32;;
35632;SDS011;21754;48.216;-1.628;2023-05-29T09:07:53;9.23;;;4.10;;
35632;SDS011;21754;48.216;-1.628;2023-05-29T09:10:19;11.50;;;5.35;;
35632;SDS011;21754;48.216;-1.628;2023-05-29T09:12:46;11.52;;;6.13;;
35632;SDS011;21754;48.216;-1.628;2023-05-29T09:17:44;13.77;;;7.78;;
35632;SDS011;21754;48.216;-1.628;2023-05-29T09:20:16;16.42;;;5.22;;
35632;SDS011;21754;48.216;-1.628;2023-05-29T09:22:46;15.25;;;6.22;;
35632;SDS011;21754;48.216;-1.628;2023-05-29T09:25:18;15.90;;;5.50;;
35632;SDS011;21754;48.216;-1.628;2023-05-29T09:27:46;11.90;;;4.68;;
35632;SDS011;21754;48.216;-1.628;2023-05-29T09:30:13;12.82;;;5.00;;
35632;SDS011;21754;48.216;-1.628;2023-05-29T09:32:56;9.05;;;5.55;;
35632;SDS011;21754;48.216;-1.628;2023-05-29T09:35:22;10.45;;;5.43;;
35632;SDS011;21754;48.216;-1.628;2023-05-29T09:37:48;6.82;;;5.18;;
35632;SDS011;21754;48.216;-1.628;2023-05-29T09:40:15;9.52;;;4.78;;
35632;SDS011;21754;48.216;-1.628;2023-05-29T09:42:41;10.93;;;6.10;;
35632;SDS011;21754;48.216;-1.628;2023-05-29T09:45:07;9.60;;;4.30;;
35632;SDS011;21754;48.216;-1.628;2023-05-29T09:47:34;15.95;;;6.40;;
35632;SDS011;21754;48.216;-1.628;2023-05-29T09:50:00;8.93;;;4.70;;
35632;SDS011;21754;48.216;-1.628;2023-05-29T09:52:28;9.57;;;3.67;;
35632;SDS011;21754;48.216;-1.628;2023-05-29T09:54:55;17.05;;;5.47;;
35632;SDS011;21754;48.216;-1.628;2023-05-29T09:57:21;16.40;;;4.78;;
35632;SDS011;21754;48.216;-1.628;2023-05-29T09:59:48;8.17;;;5.20;;
35632;SDS011;21754;48.216;-1.628;2023-05-29T10:02:16;15.77;;;5.30;;
35632;SDS011;21754;48.216;-1.628;2023-05-29T10:04:43;8.20;;;4.82;;
35632;SDS011;21754;48.216;-1.628;2023-05-29T10:07:27;14.23;;;5.20;;
35632;SDS011;21754;48.216;-1.628;2023-05-29T10:10:00;7.32;;;5.78;;
35632;SDS011;21754;48.216;-1.628;2023-05-29T10:12:27;12.68;;;5.60;;
35632;SDS011;21754;48.216;-1.628;2023-05-29T10:14:57;8.15;;;5.35;;
35632;SDS011;21754;48.216;-1.628;2023-05-29T10:17:25;11.52;;;5.13;;
35632;SDS011;21754;48.216;-1.628;2023-05-29T10:19:52;20.55;;;6.10;;
35632;SDS011;21754;48.216;-1.628;2023-05-29T10:22:19;9.48;;;4.40;;
35632;SDS011;21754;48.216;-1.628;2023-05-29T10:24:46;19.17;;;5.55;;
35632;SDS011;21754;48.216;-1.628;2023-05-29T10:27:14;8.45;;;4.45;;
35632;SDS011;21754;48.216;-1.628;2023-05-29T10:29:48;11.07;;;4.45;;
35632;SDS011;21754;48.216;-1.628;2023-05-29T10:32:20;10.93;;;4.05;;
35632;SDS011;21754;48.216;-1.628;2023-05-29T10:37:18;11.32;;;5.72;;
35632;SDS011;21754;48.216;-1.628;2023-05-29T10:39:47;10.18;;;4.55;;
35632;SDS011;21754;48.216;-1.628;2023-05-29T10:44:58;10.95;;;4.32;;
35632;SDS011;21754;48.216;-1.628;2023-05-29T10:47:24;12.27;;;5.28;;
35632;SDS011;21754;48.216;-1.628;2023-05-29T10:49:50;13.00;;;5.05;;
35632;SDS011;21754;48.216;-1.628;2023-05-29T10:52:18;18.57;;;5.43;;
35632;SDS011;21754;48.216;-1.628;2023-05-29T10:54:52;12.48;;;4.40;;
35632;SDS011;21754;48.216;-1.628;2023-05-29T10:57:20;11.13;;;4.38;;
35632;SDS011;21754;48.216;-1.628;2023-05-29T10:59:46;6.35;;;5.35;;
35632;SDS011;21754;48.216;-1.628;2023-05-29T11:02:17;12.38;;;5.75;;
35632;SDS011;21754;48.216;-1.628;2023-05-29T11:04:43;19.45;;;7.60;;
35632;SDS011;21754;48.216;-1.628;2023-05-29T11:07:31;12.88;;;6.43;;
35632;SDS011;21754;48.216;-1.628;2023-05-29T11:09:58;20.15;;;8.10;;
35632;SDS011;21754;48.216;-1.628;2023-05-29T11:12:38;18.58;;;7.75;;
35632;SDS011;21754;48.216;-1.628;2023-05-29T11:15:21;25.83;;;7.97;;
35632;SDS011;21754;48.216;-1.628;2023-05-29T11:17:47;16.95;;;7.20;;
35632;SDS011;21754;48.216;-1.628;2023-05-29T11:20:34;13.13;;;6.70;;
35632;SDS011;21754;48.216;-1.628;2023-05-29T11:23:07;14.20;;;6.07;;
35632;SDS011;21754;48.216;-1.628;2023-05-29T11:25:36;15.77;;;6.18;;
35632;SDS011;21754;48.216;-1.628;2023-05-29T11:28:03;20.05;;;6.57;;
35632;SDS011;21754;48.216;-1.628;2023-05-29T11:30:44;9.27;;;5.05;;
35632;SDS011;21754;48.216;-1.628;2023-05-29T11:33:12;9.85;;;6.70;;
35632;SDS011;21754;48.216;-1.628;2023-05-29T11:35:41;13.50;;;5.90;;
35632;SDS011;21754;48.216;-1.628;2023-05-29T11:38:07;10.60;;;5.38;;
35632;SDS011;21754;48.216;-1.628;2023-05-29T11:40:36;8.32;;;4.57;;
35632;SDS011;21754;48.216;-1.628;2023-05-29T11:43:03;14.77;;;4.55;;
35632;SDS011;21754;48.216;-1.628;2023-05-29T11:45:31;8.32;;;4.60;;
35632;SDS011;21754;48.216;-1.628;2023-05-29T11:47:58;8.60;;;4.40;;
35632;SDS011;21754;48.216;-1.628;2023-05-29T11:50:28;11.60;;;4.93;;
35632;SDS011;21754;48.216;-1.628;2023-05-29T11:52:55;12.77;;;4.75;;
35632;SDS011;21754;48.216;-1.628;2023-05-29T11:55:21;11.20;;;4.88;;
35632;SDS011;21754;48.216;-1.628;2023-05-29T11:57:48;21.58;;;3.88;;
35632;SDS011;21754;48.216;-1.628;2023-05-29T12:00:14;6.68;;;4.18;;
35632;SDS011;21754;48.216;-1.628;2023-05-29T12:02:40;9.38;;;4.30;;
35632;SDS011;21754;48.216;-1.628;2023-05-29T12:05:08;14.88;;;5.20;;
35632;SDS011;21754;48.216;-1.628;2023-05-29T12:07:34;12.15;;;4.47;;
35632;SDS011;21754;48.216;-1.628;2023-05-29T12:10:10;9.68;;;3.58;;
35632;SDS011;21754;48.216;-1.628;2023-05-29T12:12:37;12.20;;;4.35;;
35632;SDS011;21754;48.216;-1.628;2023-05-29T12:15:04;12.63;;;3.90;;
35632;SDS011;21754;48.216;-1.628;2023-05-29T12:17:32;5.95;;;3.58;;
35632;SDS011;21754;48.216;-1.628;2023-05-29T12:19:58;5.75;;;3.78;;
35632;SDS011;21754;48.216;-1.628;2023-05-29T12:22:34;9.30;;;5.72;;
35632;SDS011;21754;48.216;-1.628;2023-05-29T12:25:05;7.78;;;4.20;;
35632;SDS011;21754;48.216;-1.628;2023-05-29T12:27:32;12.95;;;4.68;;
35632;SDS011;21754;48.216;-1.628;2023-05-29T12:30:02;9.10;;;4.30;;
35632;SDS011;21754;48.216;-1.628;2023-05-29T12:32:38;10.70;;;3.47;;
35632;SDS011;21754;48.216;-1.628;2023-05-29T12:40:23;13.15;;;4.20;;
35632;SDS011;21754;48.216;-1.628;2023-05-29T12:43:08;10.73;;;3.08;;
35632;SDS011;21754;48.216;-1.628;2023-05-29T12:45:34;7.93;;;3.70;;
35632;SDS011;21754;48.216;-1.628;2023-05-29T12:48:04;9.05;;;4.43;;
35632;SDS011;21754;48.216;-1.628;2023-05-29T12:52:57;6.45;;;3.20;;
35632;SDS011;21754;48.216;-1.628;2023-05-29T12:55:24;4.95;;;3.13;;
35632;SDS011;21754;48.216;-1.628;2023-05-29T12:57:50;8.13;;;4.28;;
35632;SDS011;21754;48.216;-1.628;2023-05-29T13:00:17;14.15;;;3.38;;
35632;SDS011;21754;48.216;-1.628;2023-05-29T13:02:45;9.63;;;3.85;;
35632;SDS011;21754;48.216;-1.628;2023-05-29T13:05:12;7.95;;;3.00;;
35632;SDS011;21754;48.216;-1.628;2023-05-29T13:07:38;7.28;;;3.92;;
35632;SDS011;21754;48.216;-1.628;2023-05-29T13:10:05;11.60;;;3.50;;
35632;SDS011;21754;48.216;-1.628;2023-05-29T13:12:31;11.40;;;3.85;;
35632;SDS011;21754;48.216;-1.628;2023-05-29T13:14:57;10.80;;;3.72;;
35632;SDS011;21754;48.216;-1.628;2023-05-29T13:17:23;5.72;;;3.20;;
35632;SDS011;21754;48.216;-1.628;2023-05-29T13:19:49;8.05;;;3.53;;
35632;SDS011;21754;48.216;-1.628;2023-05-29T13:22:15;9.15;;;3.78;;
35632;SDS011;21754;48.216;-1.628;2023-05-29T13:24:41;13.20;;;2.90;;
35632;SDS011;21754;48.216;-1.628;2023-05-29T13:27:07;5.05;;;2.83;;
35632;SDS011;21754;48.216;-1.628;2023-05-29T13:29:33;11.18;;;3.28;;
35632;SDS011;21754;48.216;-1.628;2023-05-29T13:32:00;9.18;;;3.53;;
35632;SDS011;21754;48.216;-1.628;2023-05-29T13:34:26;5.50;;;2.88;;
35632;SDS011;21754;48.216;-1.628;2023-05-29T13:36:56;7.00;;;3.85;;
35632;SDS011;21754;48.216;-1.628;2023-05-29T13:39:22;9.88;;;3.63;;
35632;SDS011;21754;48.216;-1.628;2023-05-29T13:41:49;5.85;;;3.15;;
35632;SDS011;21754;48.216;-1.628;2023-05-29T13:44:15;11.32;;;4.60;;
35632;SDS011;21754;48.216;-1.628;2023-05-29T13:46:41;5.55;;;2.88;;
35632;SDS011;21754;48.216;-1.628;2023-05-29T13:49:07;15.85;;;3.88;;
35632;SDS011;21754;48.216;-1.628;2023-05-29T13:51:33;7.25;;;2.92;;
35632;SDS011;21754;48.216;-1.628;2023-05-29T13:54:01;8.40;;;2.97;;
35632;SDS011;21754;48.216;-1.628;2023-05-29T13:56:28;9.27;;;4.95;;
35632;SDS011;21754;48.216;-1.628;2023-05-29T13:58:54;10.40;;;3.60;;
35632;SDS011;21754;48.216;-1.628;2023-05-29T14:01:20;6.57;;;3.38;;
35632;SDS011;21754;48.216;-1.628;2023-05-29T14:03:46;9.75;;;2.67;;
35632;SDS011;21754;48.216;-1.628;2023-05-29T14:06:12;11.23;;;3.83;;
35632;SDS011;21754;48.216;-1.628;2023-05-29T14:08:39;6.03;;;3.05;;
35632;SDS011;21754;48.216;-1.628;2023-05-29T14:11:05;6.43;;;3.03;;
35632;SDS011;21754;48.216;-1.628;2023-05-29T14:13:31;25.33;;;4.28;;
35632;SDS011;21754;48.216;-1.628;2023-05-29T14:15:57;7.43;;;3.38;;
35632;SDS011;21754;48.216;-1.628;2023-05-29T14:18:23;9.75;;;3.63;;
35632;SDS011;21754;48.216;-1.628;2023-05-29T14:20:49;8.02;;;3.53;;
35632;SDS011;21754;48.216;-1.628;2023-05-29T14:23:18;3.55;;;2.95;;
35632;SDS011;21754;48.216;-1.628;2023-05-29T14:25:44;7.35;;;3.33;;
35632;SDS011;21754;48.216;-1.628;2023-05-29T14:28:10;5.50;;;3.53;;
35632;SDS011;21754;48.216;-1.628;2023-05-29T14:30:37;11.35;;;4.18;;
35632;SDS011;21754;48.216;-1.628;2023-05-29T14:33:03;8.13;;;3.27;;
35632;SDS011;21754;48.216;-1.628;2023-05-29T14:35:29;10.60;;;2.80;;
35632;SDS011;21754;48.216;-1.628;2023-05-29T14:37:56;8.77;;;4.05;;
35632;SDS011;21754;48.216;-1.628;2023-05-29T14:40:22;11.27;;;4.35;;
35632;SDS011;21754;48.216;-1.628;2023-05-29T14:42:48;10.57;;;3.30;;
35632;SDS011;21754;48.216;-1.628;2023-05-29T14:45:14;7.30;;;4.13;;
35632;SDS011;21754;48.216;-1.628;2023-05-29T14:47:41;4.40;;;3.28;;
35632;SDS011;21754;48.216;-1.628;2023-05-29T14:50:07;7.10;;;4.07;;
35632;SDS011;21754;48.216;-1.628;2023-05-29T14:52:33;6.25;;;3.22;;